sensor_id;sensor_type;location;lat;lon;timestamp;P1;durP1;ratioP1;P2;durP2;ratioP2
19869;SDS011;10097;50.862;4.696;2023-04-05T00:01:28;16.40;;;6.03;;
19869;SDS011;10097;50.862;4.696;2023-04-05T00:03:55;15.17;;;5.90;;
19869;SDS011;10097;50.862;4.696;2023-04-05T00:06:24;15.37;;;6.17;;
19869;SDS011;10097;50.862;4.696;2023-04-05T00:08:52;16.20;;;5.40;;
19869;SDS011;10097;50.862;4.696;2023-04-05T00:11:28;15.03;;;5.77;;
19869;SDS011;10097;50.862;4.696;2023-04-05T00:13:59;14.83;;;5.50;;
19869;SDS011;10097;50.862;4.696;2023-04-05T00:16:25;13.60;;;5.73;;
19869;SDS011;10097;50.862;4.696;2023-04-05T00:18:52;15.90;;;5.60;;
19869;SDS011;10097;50.862;4.696;2023-04-05T00:21:21;14.50;;;6.37;;
19869;SDS011;10097;50.862;4.696;2023-04-05T00:23:51;11.67;;;5.17;;
19869;SDS011;10097;50.862;4.696;2023-04-05T00:26:18;14.00;;;5.77;;
19869;SDS011;10097;50.862;4.696;2023-04-05T00:28:45;15.10;;;5.53;;
19869;SDS011;10097;50.862;4.696;2023-04-05T00:31:12;13.60;;;5.47;;
19869;SDS011;10097;50.862;4.696;2023-04-05T00:33:37;15.67;;;5.73;;
19869;SDS011;10097;50.862;4.696;2023-04-05T00:36:13;16.77;;;5.93;;
19869;SDS011;10097;50.862;4.696;2023-04-05T00:38:40;12.40;;;5.63;;
19869;SDS011;10097;50.862;4.696;2023-04-05T00:41:07;14.43;;;6.57;;
19869;SDS011;10097;50.862;4.696;2023-04-05T00:43:33;11.80;;;5.07;;
19869;SDS011;10097;50.862;4.696;2023-04-05T00:45:59;13.87;;;5.60;;
19869;SDS011;10097;50.862;4.696;2023-04-05T00:48:25;14.47;;;5.73;;
19869;SDS011;10097;50.862;4.696;2023-04-05T00:50:52;18.27;;;6.37;;
19869;SDS011;10097;50.862;4.696;2023-04-05T00:53:18;13.60;;;5.87;;
19869;SDS011;10097;50.862;4.696;2023-04-05T00:55:48;13.87;;;5.30;;
19869;SDS011;10097;50.862;4.696;2023-04-05T00:58:16;14.53;;;5.77;;
19869;SDS011;10097;50.862;4.696;2023-04-05T01:03:51;16.20;;;5.57;;
19869;SDS011;10097;50.862;4.696;2023-04-05T01:12:18;11.70;;;5.27;;
19869;SDS011;10097;50.862;4.696;2023-04-05T01:14:50;15.00;;;6.57;;
19869;SDS011;10097;50.862;4.696;2023-04-05T01:17:18;13.43;;;5.97;;
19869;SDS011;10097;50.862;4.696;2023-04-05T01:19:49;13.37;;;5.83;;
19869;SDS011;10097;50.862;4.696;2023-04-05T01:30:12;12.43;;;6.07;;
19869;SDS011;10097;50.862;4.696;2023-04-05T01:35:51;17.57;;;6.50;;
19869;SDS011;10097;50.862;4.696;2023-04-05T01:38:26;13.37;;;6.00;;
19869;SDS011;10097;50.862;4.696;2023-04-05T01:40:52;13.90;;;6.63;;
19869;SDS011;10097;50.862;4.696;2023-04-05T01:43:18;14.37;;;6.23;;
19869;SDS011;10097;50.862;4.696;2023-04-05T01:45:44;13.53;;;6.00;;
19869;SDS011;10097;50.862;4.696;2023-04-05T01:48:11;15.20;;;6.17;;
19869;SDS011;10097;50.862;4.696;2023-04-05T01:50:37;18.07;;;6.70;;
19869;SDS011;10097;50.862;4.696;2023-04-05T01:53:03;14.53;;;6.17;;
19869;SDS011;10097;50.862;4.696;2023-04-05T01:55:29;13.47;;;6.00;;
19869;SDS011;10097;50.862;4.696;2023-04-05T01:57:55;12.77;;;6.00;;
19869;SDS011;10097;50.862;4.696;2023-04-05T02:00:21;13.87;;;6.33;;
19869;SDS011;10097;50.862;4.696;2023-04-05T02:02:47;14.33;;;5.90;;
19869;SDS011;10097;50.862;4.696;2023-04-05T02:05:13;13.70;;;6.63;;
19869;SDS011;10097;50.862;4.696;2023-04-05T02:07:38;14.53;;;6.10;;
19869;SDS011;10097;50.862;4.696;2023-04-05T02:10:04;15.20;;;6.83;;
19869;SDS011;10097;50.862;4.696;2023-04-05T02:12:31;17.13;;;6.67;;
19869;SDS011;10097;50.862;4.696;2023-04-05T02:14:56;16.67;;;6.67;;
19869;SDS011;10097;50.862;4.696;2023-04-05T02:17:23;16.10;;;6.67;;
19869;SDS011;10097;50.862;4.696;2023-04-05T02:19:49;15.80;;;6.70;;
19869;SDS011;10097;50.862;4.696;2023-04-05T02:22:16;17.10;;;7.33;;
19869;SDS011;10097;50.862;4.696;2023-04-05T02:24:43;17.17;;;6.50;;
19869;SDS011;10097;50.862;4.696;2023-04-05T02:27:09;14.47;;;6.47;;
19869;SDS011;10097;50.862;4.696;2023-04-05T02:29:35;15.00;;;6.60;;
19869;SDS011;10097;50.862;4.696;2023-04-05T02:32:01;15.93;;;7.23;;
19869;SDS011;10097;50.862;4.696;2023-04-05T02:34:26;14.90;;;6.77;;
19869;SDS011;10097;50.862;4.696;2023-04-05T02:36:52;16.40;;;6.43;;
19869;SDS011;10097;50.862;4.696;2023-04-05T02:39:18;17.23;;;7.50;;
19869;SDS011;10097;50.862;4.696;2023-04-05T02:41:45;15.67;;;7.10;;
19869;SDS011;10097;50.862;4.696;2023-04-05T02:44:11;16.67;;;7.50;;
19869;SDS011;10097;50.862;4.696;2023-04-05T02:46:37;14.37;;;7.23;;
19869;SDS011;10097;50.862;4.696;2023-04-05T02:49:03;17.07;;;7.00;;
19869;SDS011;10097;50.862;4.696;2023-04-05T02:51:29;19.20;;;7.57;;
19869;SDS011;10097;50.862;4.696;2023-04-05T02:53:54;16.97;;;7.13;;
19869;SDS011;10097;50.862;4.696;2023-04-05T02:56:20;19.87;;;7.23;;
19869;SDS011;10097;50.862;4.696;2023-04-05T02:58:46;17.80;;;6.33;;
19869;SDS011;10097;50.862;4.696;2023-04-05T03:01:13;13.97;;;6.63;;
19869;SDS011;10097;50.862;4.696;2023-04-05T03:03:41;15.10;;;6.57;;
19869;SDS011;10097;50.862;4.696;2023-04-05T03:06:07;17.47;;;7.30;;
19869;SDS011;10097;50.862;4.696;2023-04-05T03:08:40;18.20;;;8.27;;
19869;SDS011;10097;50.862;4.696;2023-04-05T03:11:10;16.30;;;6.57;;
19869;SDS011;10097;50.862;4.696;2023-04-05T03:13:36;17.13;;;7.87;;
19869;SDS011;10097;50.862;4.696;2023-04-05T03:16:03;15.90;;;7.13;;
19869;SDS011;10097;50.862;4.696;2023-04-05T03:18:29;18.20;;;7.47;;
19869;SDS011;10097;50.862;4.696;2023-04-05T03:20:55;18.63;;;6.83;;
19869;SDS011;10097;50.862;4.696;2023-04-05T03:23:28;18.47;;;6.50;;
19869;SDS011;10097;50.862;4.696;2023-04-05T03:25:58;17.47;;;7.20;;
19869;SDS011;10097;50.862;4.696;2023-04-05T03:28:25;16.67;;;6.80;;
19869;SDS011;10097;50.862;4.696;2023-04-05T03:30:51;14.03;;;6.33;;
19869;SDS011;10097;50.862;4.696;2023-04-05T03:33:18;14.77;;;6.90;;
19869;SDS011;10097;50.862;4.696;2023-04-05T03:35:44;17.53;;;6.93;;
19869;SDS011;10097;50.862;4.696;2023-04-05T03:38:10;14.47;;;6.57;;
19869;SDS011;10097;50.862;4.696;2023-04-05T03:40:37;17.33;;;6.70;;
19869;SDS011;10097;50.862;4.696;2023-04-05T03:43:03;20.07;;;7.57;;
19869;SDS011;10097;50.862;4.696;2023-04-05T03:45:28;15.37;;;7.63;;
19869;SDS011;10097;50.862;4.696;2023-04-05T03:47:54;16.73;;;7.40;;
19869;SDS011;10097;50.862;4.696;2023-04-05T03:50:21;20.20;;;7.27;;
19869;SDS011;10097;50.862;4.696;2023-04-05T03:52:46;16.07;;;7.57;;
19869;SDS011;10097;50.862;4.696;2023-04-05T03:55:12;16.03;;;7.53;;
19869;SDS011;10097;50.862;4.696;2023-04-05T03:57:41;14.50;;;6.50;;
19869;SDS011;10097;50.862;4.696;2023-04-05T04:00:07;16.57;;;7.57;;
19869;SDS011;10097;50.862;4.696;2023-04-05T04:02:40;21.50;;;8.60;;
19869;SDS011;10097;50.862;4.696;2023-04-05T04:05:10;15.10;;;7.40;;
19869;SDS011;10097;50.862;4.696;2023-04-05T04:07:36;17.87;;;8.30;;
19869;SDS011;10097;50.862;4.696;2023-04-05T04:10:05;16.93;;;8.00;;
19869;SDS011;10097;50.862;4.696;2023-04-05T04:12:31;14.43;;;7.13;;
19869;SDS011;10097;50.862;4.696;2023-04-05T04:14:57;14.67;;;7.43;;
19869;SDS011;10097;50.862;4.696;2023-04-05T04:17:30;17.57;;;7.33;;
19869;SDS011;10097;50.862;4.696;2023-04-05T04:19:59;16.23;;;7.37;;
19869;SDS011;10097;50.862;4.696;2023-04-05T04:22:25;16.47;;;7.90;;
19869;SDS011;10097;50.862;4.696;2023-04-05T04:24:57;14.83;;;7.20;;
19869;SDS011;10097;50.862;4.696;2023-04-05T04:27:29;17.67;;;7.90;;
19869;SDS011;10097;50.862;4.696;2023-04-05T04:29:55;20.57;;;7.83;;
19869;SDS011;10097;50.862;4.696;2023-04-05T04:32:27;19.10;;;8.03;;
19869;SDS011;10097;50.862;4.696;2023-04-05T04:35:12;18.83;;;8.13;;
19869;SDS011;10097;50.862;4.696;2023-04-05T04:37:58;18.73;;;8.57;;
19869;SDS011;10097;50.862;4.696;2023-04-05T04:40:32;15.87;;;7.77;;
19869;SDS011;10097;50.862;4.696;2023-04-05T04:43:09;17.77;;;7.13;;
19869;SDS011;10097;50.862;4.696;2023-04-05T04:45:47;16.43;;;7.47;;
19869;SDS011;10097;50.862;4.696;2023-04-05T04:48:17;17.23;;;8.23;;
19869;SDS011;10097;50.862;4.696;2023-04-05T04:50:43;17.87;;;8.07;;
19869;SDS011;10097;50.862;4.696;2023-04-05T04:53:10;18.27;;;8.27;;
19869;SDS011;10097;50.862;4.696;2023-04-05T04:55:37;17.70;;;7.33;;
19869;SDS011;10097;50.862;4.696;2023-04-05T04:58:06;17.47;;;7.53;;
19869;SDS011;10097;50.862;4.696;2023-04-05T05:00:39;19.27;;;8.07;;
19869;SDS011;10097;50.862;4.696;2023-04-05T05:03:08;18.83;;;8.47;;
19869;SDS011;10097;50.862;4.696;2023-04-05T05:05:41;23.23;;;8.20;;
19869;SDS011;10097;50.862;4.696;2023-04-05T05:08:07;23.87;;;8.50;;
19869;SDS011;10097;50.862;4.696;2023-04-05T05:10:33;19.97;;;9.20;;
19869;SDS011;10097;50.862;4.696;2023-04-05T05:12:58;18.37;;;8.53;;
19869;SDS011;10097;50.862;4.696;2023-04-05T05:15:24;18.93;;;8.67;;
19869;SDS011;10097;50.862;4.696;2023-04-05T05:17:51;17.77;;;8.33;;
19869;SDS011;10097;50.862;4.696;2023-04-05T05:20:19;20.80;;;8.17;;
19869;SDS011;10097;50.862;4.696;2023-04-05T05:22:45;18.93;;;8.20;;
19869;SDS011;10097;50.862;4.696;2023-04-05T05:25:11;20.13;;;8.53;;
19869;SDS011;10097;50.862;4.696;2023-04-05T05:27:37;19.43;;;8.37;;
19869;SDS011;10097;50.862;4.696;2023-04-05T05:30:03;23.70;;;8.23;;
19869;SDS011;10097;50.862;4.696;2023-04-05T05:32:30;19.47;;;7.93;;
19869;SDS011;10097;50.862;4.696;2023-04-05T05:34:56;19.50;;;9.23;;
19869;SDS011;10097;50.862;4.696;2023-04-05T05:37:29;17.27;;;8.10;;
19869;SDS011;10097;50.862;4.696;2023-04-05T05:39:55;18.20;;;8.67;;
19869;SDS011;10097;50.862;4.696;2023-04-05T05:42:21;18.37;;;8.53;;
19869;SDS011;10097;50.862;4.696;2023-04-05T05:44:47;20.70;;;8.23;;
19869;SDS011;10097;50.862;4.696;2023-04-05T05:47:13;20.30;;;8.50;;
19869;SDS011;10097;50.862;4.696;2023-04-05T05:49:39;22.60;;;8.00;;
19869;SDS011;10097;50.862;4.696;2023-04-05T05:52:05;18.17;;;8.67;;
19869;SDS011;10097;50.862;4.696;2023-04-05T05:54:30;17.70;;;7.80;;
19869;SDS011;10097;50.862;4.696;2023-04-05T05:56:56;18.97;;;9.37;;
19869;SDS011;10097;50.862;4.696;2023-04-05T05:59:23;18.50;;;8.63;;
19869;SDS011;10097;50.862;4.696;2023-04-05T06:01:48;19.13;;;9.13;;
19869;SDS011;10097;50.862;4.696;2023-04-05T06:04:16;24.00;;;10.13;;
19869;SDS011;10097;50.862;4.696;2023-04-05T06:06:43;25.00;;;10.07;;
19869;SDS011;10097;50.862;4.696;2023-04-05T06:09:12;20.87;;;9.73;;
19869;SDS011;10097;50.862;4.696;2023-04-05T06:11:39;21.37;;;9.07;;
19869;SDS011;10097;50.862;4.696;2023-04-05T06:14:07;23.20;;;10.40;;
19869;SDS011;10097;50.862;4.696;2023-04-05T06:16:32;16.70;;;8.93;;
19869;SDS011;10097;50.862;4.696;2023-04-05T06:18:59;18.93;;;9.70;;
19869;SDS011;10097;50.862;4.696;2023-04-05T06:21:25;19.47;;;8.33;;
19869;SDS011;10097;50.862;4.696;2023-04-05T06:23:51;23.03;;;9.77;;
19869;SDS011;10097;50.862;4.696;2023-04-05T06:26:18;22.40;;;10.30;;
19869;SDS011;10097;50.862;4.696;2023-04-05T06:28:47;21.93;;;9.87;;
19869;SDS011;10097;50.862;4.696;2023-04-05T06:31:14;21.10;;;9.50;;
19869;SDS011;10097;50.862;4.696;2023-04-05T06:33:41;22.27;;;10.53;;
19869;SDS011;10097;50.862;4.696;2023-04-05T06:36:07;22.73;;;10.50;;
19869;SDS011;10097;50.862;4.696;2023-04-05T06:38:34;22.07;;;10.03;;
19869;SDS011;10097;50.862;4.696;2023-04-05T06:41:00;22.67;;;10.23;;
19869;SDS011;10097;50.862;4.696;2023-04-05T06:43:26;26.67;;;10.37;;
19869;SDS011;10097;50.862;4.696;2023-04-05T06:45:54;18.47;;;9.40;;
19869;SDS011;10097;50.862;4.696;2023-04-05T06:48:20;20.20;;;10.20;;
19869;SDS011;10097;50.862;4.696;2023-04-05T06:50:46;21.77;;;9.87;;
19869;SDS011;10097;50.862;4.696;2023-04-05T06:53:20;19.93;;;8.93;;
19869;SDS011;10097;50.862;4.696;2023-04-05T06:55:49;18.87;;;9.43;;
19869;SDS011;10097;50.862;4.696;2023-04-05T06:58:15;20.47;;;9.67;;
19869;SDS011;10097;50.862;4.696;2023-04-05T07:00:41;24.50;;;9.93;;
19869;SDS011;10097;50.862;4.696;2023-04-05T07:03:16;19.70;;;8.70;;
19869;SDS011;10097;50.862;4.696;2023-04-05T07:05:52;22.30;;;9.50;;
19869;SDS011;10097;50.862;4.696;2023-04-05T07:08:20;19.03;;;8.93;;
19869;SDS011;10097;50.862;4.696;2023-04-05T07:10:47;19.20;;;9.17;;
19869;SDS011;10097;50.862;4.696;2023-04-05T07:13:20;19.40;;;9.83;;
19869;SDS011;10097;50.862;4.696;2023-04-05T07:16:06;19.40;;;8.57;;
19869;SDS011;10097;50.862;4.696;2023-04-05T07:18:37;19.00;;;9.63;;
19869;SDS011;10097;50.862;4.696;2023-04-05T07:21:03;18.03;;;9.00;;
19869;SDS011;10097;50.862;4.696;2023-04-05T07:23:29;19.80;;;8.90;;
19869;SDS011;10097;50.862;4.696;2023-04-05T07:26:01;18.60;;;8.93;;
19869;SDS011;10097;50.862;4.696;2023-04-05T07:28:32;21.60;;;9.73;;
19869;SDS011;10097;50.862;4.696;2023-04-05T07:30:59;18.13;;;8.63;;
19869;SDS011;10097;50.862;4.696;2023-04-05T07:33:25;16.73;;;8.40;;
19869;SDS011;10097;50.862;4.696;2023-04-05T07:35:54;21.23;;;9.40;;
19869;SDS011;10097;50.862;4.696;2023-04-05T07:38:22;16.80;;;8.40;;
19869;SDS011;10097;50.862;4.696;2023-04-05T07:40:48;18.67;;;8.47;;
19869;SDS011;10097;50.862;4.696;2023-04-05T07:43:15;20.90;;;8.20;;
19869;SDS011;10097;50.862;4.696;2023-04-05T07:45:42;20.27;;;7.90;;
19869;SDS011;10097;50.862;4.696;2023-04-05T07:48:08;18.53;;;9.33;;
19869;SDS011;10097;50.862;4.696;2023-04-05T07:50:34;22.00;;;9.23;;
19869;SDS011;10097;50.862;4.696;2023-04-05T07:53:00;19.53;;;8.30;;
19869;SDS011;10097;50.862;4.696;2023-04-05T07:55:26;20.40;;;8.63;;
19869;SDS011;10097;50.862;4.696;2023-04-05T07:57:52;19.60;;;8.67;;
19869;SDS011;10097;50.862;4.696;2023-04-05T08:00:20;20.10;;;8.60;;
19869;SDS011;10097;50.862;4.696;2023-04-05T08:02:46;18.03;;;9.47;;
19869;SDS011;10097;50.862;4.696;2023-04-05T08:05:11;19.47;;;8.20;;
19869;SDS011;10097;50.862;4.696;2023-04-05T08:07:37;16.03;;;7.17;;
19869;SDS011;10097;50.862;4.696;2023-04-05T08:10:03;21.40;;;8.00;;
19869;SDS011;10097;50.862;4.696;2023-04-05T08:12:30;18.40;;;7.83;;
19869;SDS011;10097;50.862;4.696;2023-04-05T08:14:56;18.37;;;7.53;;
19869;SDS011;10097;50.862;4.696;2023-04-05T08:17:22;17.67;;;7.83;;
19869;SDS011;10097;50.862;4.696;2023-04-05T08:19:51;17.53;;;7.20;;
19869;SDS011;10097;50.862;4.696;2023-04-05T08:22:17;15.90;;;6.83;;
19869;SDS011;10097;50.862;4.696;2023-04-05T08:24:43;15.97;;;6.63;;
19869;SDS011;10097;50.862;4.696;2023-04-05T08:27:09;15.33;;;6.83;;
19869;SDS011;10097;50.862;4.696;2023-04-05T08:29:35;14.33;;;6.87;;
19869;SDS011;10097;50.862;4.696;2023-04-05T08:32:01;15.43;;;5.90;;
19869;SDS011;10097;50.862;4.696;2023-04-05T08:34:27;12.73;;;5.47;;
19869;SDS011;10097;50.862;4.696;2023-04-05T08:36:57;15.10;;;6.00;;
19869;SDS011;10097;50.862;4.696;2023-04-05T08:39:23;14.90;;;6.07;;
19869;SDS011;10097;50.862;4.696;2023-04-05T08:41:53;14.87;;;5.60;;
19869;SDS011;10097;50.862;4.696;2023-04-05T08:44:25;16.70;;;6.63;;
19869;SDS011;10097;50.862;4.696;2023-04-05T08:46:54;16.60;;;6.10;;
19869;SDS011;10097;50.862;4.696;2023-04-05T08:49:22;19.13;;;6.43;;
19869;SDS011;10097;50.862;4.696;2023-04-05T08:51:48;13.13;;;5.90;;
19869;SDS011;10097;50.862;4.696;2023-04-05T08:54:13;13.70;;;5.37;;
19869;SDS011;10097;50.862;4.696;2023-04-05T08:56:39;12.40;;;4.73;;
19869;SDS011;10097;50.862;4.696;2023-04-05T08:59:07;12.67;;;5.30;;
19869;SDS011;10097;50.862;4.696;2023-04-05T09:01:40;13.63;;;4.83;;
19869;SDS011;10097;50.862;4.696;2023-04-05T09:04:14;15.20;;;5.90;;
19869;SDS011;10097;50.862;4.696;2023-04-05T09:06:43;12.17;;;4.60;;
19869;SDS011;10097;50.862;4.696;2023-04-05T09:09:10;13.00;;;5.00;;
19869;SDS011;10097;50.862;4.696;2023-04-05T09:11:45;14.43;;;5.70;;
19869;SDS011;10097;50.862;4.696;2023-04-05T09:14:11;12.03;;;4.77;;
19869;SDS011;10097;50.862;4.696;2023-04-05T09:16:40;11.53;;;4.90;;
19869;SDS011;10097;50.862;4.696;2023-04-05T09:19:06;12.67;;;4.83;;
19869;SDS011;10097;50.862;4.696;2023-04-05T09:29:36;15.47;;;5.37;;
19869;SDS011;10097;50.862;4.696;2023-04-05T09:32:03;13.53;;;5.77;;
19869;SDS011;10097;50.862;4.696;2023-04-05T09:34:30;15.23;;;5.47;;
19869;SDS011;10097;50.862;4.696;2023-04-05T09:36:57;12.73;;;5.37;;
19869;SDS011;10097;50.862;4.696;2023-04-05T09:39:27;16.93;;;6.13;;
19869;SDS011;10097;50.862;4.696;2023-04-05T09:42:03;14.17;;;6.00;;
19869;SDS011;10097;50.862;4.696;2023-04-05T09:47:22;13.43;;;5.43;;
19869;SDS011;10097;50.862;4.696;2023-04-05T09:49:56;17.20;;;6.87;;
19869;SDS011;10097;50.862;4.696;2023-04-05T09:52:28;13.63;;;5.80;;
19869;SDS011;10097;50.862;4.696;2023-04-05T09:55:02;15.83;;;6.30;;
19869;SDS011;10097;50.862;4.696;2023-04-05T09:57:35;13.63;;;6.10;;
19869;SDS011;10097;50.862;4.696;2023-04-05T10:00:02;17.07;;;6.63;;
19869;SDS011;10097;50.862;4.696;2023-04-05T10:02:36;14.20;;;6.03;;
19869;SDS011;10097;50.862;4.696;2023-04-05T10:05:07;13.50;;;6.00;;
19869;SDS011;10097;50.862;4.696;2023-04-05T10:07:39;13.20;;;5.70;;
19869;SDS011;10097;50.862;4.696;2023-04-05T10:10:09;13.67;;;5.50;;
19869;SDS011;10097;50.862;4.696;2023-04-05T10:12:37;13.77;;;6.13;;
19869;SDS011;10097;50.862;4.696;2023-04-05T10:15:03;14.60;;;6.00;;
19869;SDS011;10097;50.862;4.696;2023-04-05T10:17:33;16.17;;;6.57;;
19869;SDS011;10097;50.862;4.696;2023-04-05T10:23:00;12.80;;;5.67;;
19869;SDS011;10097;50.862;4.696;2023-04-05T10:25:46;16.30;;;6.10;;
19869;SDS011;10097;50.862;4.696;2023-04-05T10:28:30;17.37;;;6.60;;
19869;SDS011;10097;50.862;4.696;2023-04-05T10:33:40;12.10;;;6.20;;
19869;SDS011;10097;50.862;4.696;2023-04-05T10:36:22;13.33;;;5.77;;
19869;SDS011;10097;50.862;4.696;2023-04-05T10:39:03;13.10;;;5.97;;
19869;SDS011;10097;50.862;4.696;2023-04-05T10:41:39;13.93;;;6.10;;
19869;SDS011;10097;50.862;4.696;2023-04-05T10:44:08;12.77;;;6.27;;
19869;SDS011;10097;50.862;4.696;2023-04-05T10:46:35;12.77;;;6.20;;
19869;SDS011;10097;50.862;4.696;2023-04-05T10:49:21;13.30;;;6.60;;
19869;SDS011;10097;50.862;4.696;2023-04-05T10:51:57;13.60;;;5.53;;
19869;SDS011;10097;50.862;4.696;2023-04-05T10:54:23;14.70;;;6.33;;
19869;SDS011;10097;50.862;4.696;2023-04-05T10:56:52;15.33;;;6.73;;
19869;SDS011;10097;50.862;4.696;2023-04-05T10:59:19;12.27;;;5.37;;
19869;SDS011;10097;50.862;4.696;2023-04-05T11:01:46;16.00;;;6.50;;
19869;SDS011;10097;50.862;4.696;2023-04-05T11:04:13;13.43;;;6.30;;
19869;SDS011;10097;50.862;4.696;2023-04-05T11:06:41;13.63;;;5.80;;
19869;SDS011;10097;50.862;4.696;2023-04-05T11:09:10;19.17;;;6.77;;
19869;SDS011;10097;50.862;4.696;2023-04-05T11:11:42;14.23;;;6.70;;
19869;SDS011;10097;50.862;4.696;2023-04-05T11:16:51;14.77;;;6.47;;
19869;SDS011;10097;50.862;4.696;2023-04-05T11:22:08;13.90;;;6.70;;
19869;SDS011;10097;50.862;4.696;2023-04-05T11:24:50;12.97;;;6.53;;
19869;SDS011;10097;50.862;4.696;2023-04-05T11:29:55;12.77;;;5.77;;
19869;SDS011;10097;50.862;4.696;2023-04-05T11:32:22;13.23;;;6.37;;
19869;SDS011;10097;50.862;4.696;2023-04-05T11:35:04;12.27;;;6.10;;
19869;SDS011;10097;50.862;4.696;2023-04-05T11:40:23;13.87;;;6.27;;
19869;SDS011;10097;50.862;4.696;2023-04-05T11:42:56;13.97;;;6.00;;
19869;SDS011;10097;50.862;4.696;2023-04-05T11:45:28;14.23;;;6.90;;
19869;SDS011;10097;50.862;4.696;2023-04-05T11:47:56;13.40;;;6.20;;
19869;SDS011;10097;50.862;4.696;2023-04-05T11:50:23;16.47;;;5.93;;
19869;SDS011;10097;50.862;4.696;2023-04-05T11:53:06;16.70;;;6.00;;
19869;SDS011;10097;50.862;4.696;2023-04-05T11:55:39;15.13;;;6.37;;
19869;SDS011;10097;50.862;4.696;2023-04-05T11:58:13;12.83;;;6.03;;
19869;SDS011;10097;50.862;4.696;2023-04-05T12:00:44;12.03;;;5.77;;
19869;SDS011;10097;50.862;4.696;2023-04-05T12:03:14;15.40;;;6.57;;
19869;SDS011;10097;50.862;4.696;2023-04-05T12:05:48;13.03;;;6.20;;
19869;SDS011;10097;50.862;4.696;2023-04-05T12:08:15;14.53;;;6.03;;
19869;SDS011;10097;50.862;4.696;2023-04-05T12:10:42;14.70;;;6.07;;
19869;SDS011;10097;50.862;4.696;2023-04-05T12:13:23;14.03;;;6.23;;
19869;SDS011;10097;50.862;4.696;2023-04-05T12:15:53;13.93;;;6.57;;
19869;SDS011;10097;50.862;4.696;2023-04-05T12:18:21;15.23;;;6.17;;
19869;SDS011;10097;50.862;4.696;2023-04-05T12:20:48;16.83;;;6.97;;
19869;SDS011;10097;50.862;4.696;2023-04-05T12:23:14;13.20;;;6.43;;
19869;SDS011;10097;50.862;4.696;2023-04-05T12:25:44;14.40;;;6.28;;
19869;SDS011;10097;50.862;4.696;2023-04-05T12:28:11;15.93;;;6.43;;
19869;SDS011;10097;50.862;4.696;2023-04-05T12:30:55;12.80;;;6.75;;
19869;SDS011;10097;50.862;4.696;2023-04-05T12:33:27;14.17;;;6.73;;
19869;SDS011;10097;50.862;4.696;2023-04-05T12:35:54;13.02;;;6.38;;
19869;SDS011;10097;50.862;4.696;2023-04-05T12:38:23;14.38;;;6.57;;
19869;SDS011;10097;50.862;4.696;2023-04-05T12:40:51;14.15;;;6.55;;
19869;SDS011;10097;50.862;4.696;2023-04-05T12:43:18;12.73;;;6.32;;
19869;SDS011;10097;50.862;4.696;2023-04-05T12:45:44;17.73;;;6.50;;
19869;SDS011;10097;50.862;4.696;2023-04-05T12:48:11;12.75;;;6.47;;
19869;SDS011;10097;50.862;4.696;2023-04-05T12:50:45;12.93;;;6.10;;
19869;SDS011;10097;50.862;4.696;2023-04-05T12:53:16;14.45;;;6.80;;
19869;SDS011;10097;50.862;4.696;2023-04-05T12:55:49;15.43;;;6.80;;
19869;SDS011;10097;50.862;4.696;2023-04-05T12:58:16;14.65;;;6.95;;
19869;SDS011;10097;50.862;4.696;2023-04-05T13:00:44;16.40;;;6.53;;
19869;SDS011;10097;50.862;4.696;2023-04-05T13:03:17;16.88;;;7.00;;
19869;SDS011;10097;50.862;4.696;2023-04-05T13:05:45;12.63;;;7.00;;
19869;SDS011;10097;50.862;4.696;2023-04-05T13:08:12;15.23;;;6.78;;
19869;SDS011;10097;50.862;4.696;2023-04-05T13:10:37;14.20;;;7.28;;
19869;SDS011;10097;50.862;4.696;2023-04-05T13:13:03;14.23;;;7.00;;
19869;SDS011;10097;50.862;4.696;2023-04-05T13:15:29;12.10;;;6.75;;
19869;SDS011;10097;50.862;4.696;2023-04-05T13:17:56;16.58;;;7.85;;
19869;SDS011;10097;50.862;4.696;2023-04-05T13:20:21;12.40;;;6.38;;
19869;SDS011;10097;50.862;4.696;2023-04-05T13:22:47;16.85;;;7.38;;
19869;SDS011;10097;50.862;4.696;2023-04-05T13:25:13;14.65;;;7.03;;
19869;SDS011;10097;50.862;4.696;2023-04-05T13:27:40;18.83;;;7.15;;
19869;SDS011;10097;50.862;4.696;2023-04-05T13:30:06;16.92;;;7.03;;
19869;SDS011;10097;50.862;4.696;2023-04-05T13:32:32;14.50;;;7.90;;
19869;SDS011;10097;50.862;4.696;2023-04-05T13:34:58;12.65;;;7.10;;
19869;SDS011;10097;50.862;4.696;2023-04-05T13:37:24;12.32;;;6.20;;
19869;SDS011;10097;50.862;4.696;2023-04-05T13:39:50;14.25;;;6.82;;
19869;SDS011;10097;50.862;4.696;2023-04-05T13:42:17;13.80;;;7.28;;
19869;SDS011;10097;50.862;4.696;2023-04-05T13:44:43;14.43;;;7.78;;
19869;SDS011;10097;50.862;4.696;2023-04-05T13:47:10;14.73;;;7.43;;
19869;SDS011;10097;50.862;4.696;2023-04-05T13:49:40;14.13;;;7.75;;
19869;SDS011;10097;50.862;4.696;2023-04-05T13:52:07;17.17;;;7.13;;
19869;SDS011;10097;50.862;4.696;2023-04-05T13:54:33;18.40;;;6.82;;
19869;SDS011;10097;50.862;4.696;2023-04-05T13:56:58;14.30;;;7.25;;
19869;SDS011;10097;50.862;4.696;2023-04-05T13:59:25;14.15;;;7.05;;
19869;SDS011;10097;50.862;4.696;2023-04-05T14:01:51;17.63;;;8.13;;
19869;SDS011;10097;50.862;4.696;2023-04-05T14:04:17;16.48;;;7.90;;
19869;SDS011;10097;50.862;4.696;2023-04-05T14:06:43;17.88;;;8.15;;
19869;SDS011;10097;50.862;4.696;2023-04-05T14:09:09;13.15;;;7.63;;
19869;SDS011;10097;50.862;4.696;2023-04-05T14:11:35;16.52;;;7.75;;
19869;SDS011;10097;50.862;4.696;2023-04-05T14:14:01;13.70;;;7.40;;
19869;SDS011;10097;50.862;4.696;2023-04-05T14:16:27;16.08;;;8.35;;
19869;SDS011;10097;50.862;4.696;2023-04-05T14:18:53;14.35;;;7.93;;
19869;SDS011;10097;50.862;4.696;2023-04-05T14:21:19;17.17;;;8.13;;
19869;SDS011;10097;50.862;4.696;2023-04-05T14:23:45;15.80;;;8.50;;
19869;SDS011;10097;50.862;4.696;2023-04-05T14:26:11;17.08;;;8.52;;
19869;SDS011;10097;50.862;4.696;2023-04-05T14:28:37;15.13;;;7.82;;
19869;SDS011;10097;50.862;4.696;2023-04-05T14:31:03;14.90;;;7.53;;
19869;SDS011;10097;50.862;4.696;2023-04-05T14:33:28;16.23;;;8.20;;
19869;SDS011;10097;50.862;4.696;2023-04-05T14:35:55;15.77;;;8.30;;
19869;SDS011;10097;50.862;4.696;2023-04-05T14:38:21;16.00;;;8.13;;
19869;SDS011;10097;50.862;4.696;2023-04-05T14:40:47;19.60;;;8.23;;
19869;SDS011;10097;50.862;4.696;2023-04-05T14:43:14;22.85;;;9.23;;
19869;SDS011;10097;50.862;4.696;2023-04-05T14:45:40;14.63;;;7.05;;
19869;SDS011;10097;50.862;4.696;2023-04-05T14:48:06;15.40;;;8.45;;
19869;SDS011;10097;50.862;4.696;2023-04-05T14:50:32;16.38;;;8.35;;
19869;SDS011;10097;50.862;4.696;2023-04-05T14:52:58;15.68;;;8.27;;
19869;SDS011;10097;50.862;4.696;2023-04-05T14:55:25;14.77;;;8.45;;
19869;SDS011;10097;50.862;4.696;2023-04-05T14:57:51;14.77;;;7.60;;
19869;SDS011;10097;50.862;4.696;2023-04-05T15:00:17;17.75;;;8.32;;
19869;SDS011;10097;50.862;4.696;2023-04-05T15:02:43;17.58;;;7.90;;
19869;SDS011;10097;50.862;4.696;2023-04-05T15:05:10;15.15;;;7.43;;
19869;SDS011;10097;50.862;4.696;2023-04-05T15:07:36;15.38;;;7.00;;
19869;SDS011;10097;50.862;4.696;2023-04-05T15:10:02;14.27;;;7.20;;
19869;SDS011;10097;50.862;4.696;2023-04-05T15:12:29;14.73;;;7.07;;
19869;SDS011;10097;50.862;4.696;2023-04-05T15:14:56;14.90;;;7.40;;
19869;SDS011;10097;50.862;4.696;2023-04-05T15:17:21;14.73;;;7.22;;
19869;SDS011;10097;50.862;4.696;2023-04-05T15:19:47;16.50;;;7.43;;
19869;SDS011;10097;50.862;4.696;2023-04-05T15:22:13;15.32;;;8.30;;
19869;SDS011;10097;50.862;4.696;2023-04-05T15:24:39;15.65;;;8.18;;
19869;SDS011;10097;50.862;4.696;2023-04-05T15:27:05;16.45;;;8.77;;